Terminal Aerodrome Forecast
Issued by NWS Jackson, MS

Current Version | Previous Version | Text Only | Print | Product List | Glossary On
Versions: 1 2 3 4 5 6 7 8 9 10 11 12 13 14 15
000
FTUS44 KJAN 011232 AAB
TAFJAN
TAF AMD
KJAN 011232Z 0113/0212 23003KT P6SM OVC007
     FM011500 21008KT P6SM SCT010 SCT250
     FM020000 16006KT P6SM BKN170=

USA.gov is the U.S. government's official web portal to all federal, state and local government web resources and services.